Time;durP1;ratioP1;P1;durP2;ratioP2;P2;SDS_P1;SDS_P2;PMS_P1;PMS_P2;Temp;Humidity;BMP_temperature;BMP_pressure;BME280_temperature;BME280_humidity;BME280_pressure;Samples;Min_cycle;Max_cycle;Signal;HPM_P1;HPM_P2
2024/01/07 00:00:15;;;;;;;57.42;32.65;;;0.90;99.90;;;;;;2074458;28;20051;-81
2024/01/07 00:01:16;;;;;;;61.10;33.53;;;0.90;99.90;;;;;;2069717;28;20025;-87
2024/01/07 00:02:18;;;;;;;61.80;33.70;;;0.90;99.90;;;;;;2081434;28;20032;-84
2024/01/07 00:03:18;;;;;;;58.90;32.53;;;0.90;99.90;;;;;;2070525;28;20787;-83
2024/01/07 00:04:19;;;;;;;61.75;33.03;;;0.80;99.90;;;;;;2080108;28;20036;-82
2024/01/07 00:05:19;;;;;;;62.90;33.55;;;0.80;99.90;;;;;;2078990;28;20033;-86
2024/01/07 00:06:20;;;;;;;60.33;32.83;;;0.70;99.90;;;;;;2077984;28;20068;-90
2024/01/07 00:07:21;;;;;;;58.40;31.48;;;0.70;99.90;;;;;;2084344;28;20033;-85
2024/01/07 00:08:21;;;;;;;59.30;33.03;;;0.70;99.90;;;;;;2091333;28;20067;-81
2024/01/07 00:09:22;;;;;;;61.63;32.75;;;0.70;99.90;;;;;;2075282;28;20431;-81
2024/01/07 00:10:22;;;;;;;59.47;32.45;;;0.60;99.90;;;;;;2078327;28;20472;-79
2024/01/07 00:11:24;;;;;;;58.58;32.08;;;0.50;99.90;;;;;;2079887;28;20075;-81
2024/01/07 00:12:25;;;;;;;60.22;31.38;;;0.60;99.90;;;;;;2076272;28;20123;-80
2024/01/07 00:13:25;;;;;;;59.92;33.00;;;0.60;99.90;;;;;;2077763;28;20017;-80
2024/01/07 00:14:26;;;;;;;58.65;31.52;;;0.60;99.90;;;;;;2080908;28;20033;-79
2024/01/07 00:15:27;;;;;;;59.13;31.65;;;0.70;99.90;;;;;;2079432;28;20037;-79
2024/01/07 00:16:27;;;;;;;58.15;32.05;;;0.60;99.90;;;;;;2068514;28;20038;-79
2024/01/07 00:17:28;;;;;;;59.05;32.92;;;0.60;99.90;;;;;;2077469;28;20037;-78
2024/01/07 00:18:29;;;;;;;60.85;33.15;;;0.60;99.90;;;;;;2072254;28;20105;-78
2024/01/07 00:19:31;;;;;;;58.33;31.73;;;0.60;99.90;;;;;;2081934;28;20048;-82
2024/01/07 00:20:31;;;;;;;57.90;31.67;;;0.50;99.90;;;;;;2079491;28;20014;-82
2024/01/07 00:21:32;;;;;;;56.88;31.67;;;0.60;99.90;;;;;;2064292;28;20029;-81
2024/01/07 00:22:33;;;;;;;58.45;31.50;;;0.70;99.90;;;;;;2064838;28;20030;-83
2024/01/07 00:23:34;;;;;;;64.53;36.33;;;0.70;99.90;;;;;;2074862;28;20022;-79
2024/01/07 00:24:34;;;;;;;62.47;32.28;;;0.70;99.90;;;;;;2071260;28;20046;-87
2024/01/07 00:25:35;;;;;;;68.70;37.75;;;0.70;99.90;;;;;;2072055;28;20026;-75
2024/01/07 00:26:35;;;;;;;58.85;32.38;;;0.70;99.90;;;;;;2065535;28;20490;-80
2024/01/07 00:27:36;;;;;;;57.13;31.40;;;0.80;99.90;;;;;;2060431;28;20551;-87
2024/01/07 00:28:36;;;;;;;55.63;30.60;;;0.80;99.90;;;;;;2064827;28;20093;-73
2024/01/07 00:29:37;;;;;;;55.90;31.38;;;0.80;99.90;;;;;;2074495;28;20009;-77
2024/01/07 00:30:38;;;;;;;55.72;31.52;;;0.80;99.90;;;;;;2066038;28;20719;-75
2024/01/07 00:31:38;;;;;;;59.38;31.55;;;0.80;99.90;;;;;;2063811;28;20025;-76
2024/01/07 00:32:39;;;;;;;53.83;30.42;;;0.80;99.90;;;;;;2072806;28;20076;-75
2024/01/07 00:33:40;;;;;;;55.15;30.52;;;0.80;99.90;;;;;;2062832;28;20045;-76
2024/01/07 00:34:40;;;;;;;55.65;31.13;;;0.80;99.90;;;;;;2064155;28;20076;-76
2024/01/07 00:35:41;;;;;;;56.55;30.35;;;0.80;99.90;;;;;;2064970;28;20105;-76
2024/01/07 00:36:41;;;;;;;56.67;30.08;;;0.70;99.90;;;;;;2058095;28;20034;-75
2024/01/07 00:37:42;;;;;;;56.35;30.23;;;0.70;99.90;;;;;;2068116;28;20076;-72
2024/01/07 00:38:43;;;;;;;54.55;31.27;;;0.70;99.90;;;;;;2084431;28;20044;-72
2024/01/07 00:39:45;;;;;;;55.40;31.45;;;0.70;99.90;;;;;;2070642;28;20037;-72
2024/01/07 00:40:47;;;;;;;57.88;31.60;;;0.60;99.90;;;;;;2062059;28;20026;-72
2024/01/07 00:41:48;;;;;;;55.28;31.90;;;0.60;99.90;;;;;;2067392;28;20025;-72
2024/01/07 00:42:48;;;;;;;58.38;32.45;;;0.60;99.90;;;;;;2068685;28;20019;-75
2024/01/07 00:43:50;;;;;;;58.70;31.65;;;0.60;99.90;;;;;;2067503;28;20492;-73
2024/01/07 00:44:50;;;;;;;58.15;32.13;;;0.60;99.90;;;;;;2072112;28;20029;-71
2024/01/07 00:45:51;;;;;;;55.53;30.25;;;0.60;99.90;;;;;;2060404;28;20030;-71
2024/01/07 00:46:51;;;;;;;54.67;30.27;;;0.70;99.90;;;;;;2065905;28;20058;-72
2024/01/07 00:47:54;;;;;;;52.92;29.40;;;0.70;99.90;;;;;;2068608;28;20028;-73
2024/01/07 00:48:55;;;;;;;56.38;30.60;;;0.70;99.90;;;;;;2061094;28;20096;-71
2024/01/07 00:49:55;;;;;;;55.10;29.50;;;0.70;99.90;;;;;;2075646;28;20483;-72
2024/01/07 00:50:56;;;;;;;54.42;30.50;;;0.70;99.90;;;;;;2068409;28;20030;-71
2024/01/07 00:51:56;;;;;;;51.25;28.98;;;0.70;99.90;;;;;;2071692;28;20072;-71
2024/01/07 00:52:57;;;;;;;52.45;28.77;;;0.70;99.90;;;;;;2072121;28;20021;-71
2024/01/07 00:53:57;;;;;;;54.53;28.48;;;0.70;99.90;;;;;;2066011;28;20128;-71
2024/01/07 00:54:58;;;;;;;54.53;29.77;;;0.70;99.90;;;;;;2076150;28;20373;-71
2024/01/07 00:55:58;;;;;;;52.75;29.10;;;0.70;99.90;;;;;;2075346;28;20113;-71
2024/01/07 00:56:59;;;;;;;56.58;30.02;;;0.70;99.90;;;;;;2072695;28;20029;-72
2024/01/07 00:57:59;;;;;;;53.25;28.73;;;0.70;99.90;;;;;;2071280;28;20033;-72
2024/01/07 00:59:01;;;;;;;54.50;28.75;;;0.70;99.90;;;;;;2068095;28;20034;-72
2024/01/07 01:00:06;;;;;;;57.28;30.50;;;0.70;99.90;;;;;;2067768;28;20046;-71
2024/01/07 01:01:06;;;;;;;57.33;29.30;;;0.70;99.90;;;;;;2063382;28;20053;-72
2024/01/07 01:02:07;;;;;;;59.35;28.95;;;0.70;99.90;;;;;;2063588;28;20492;-71
2024/01/07 01:03:08;;;;;;;56.88;29.58;;;0.70;99.90;;;;;;2076257;28;20097;-71
2024/01/07 01:04:08;;;;;;;55.92;29.15;;;0.60;99.90;;;;;;2082228;28;20220;-71
2024/01/07 01:05:09;;;;;;;57.00;29.88;;;0.60;99.90;;;;;;2075903;28;20060;-70
2024/01/07 01:06:10;;;;;;;49.83;27.65;;;0.60;99.90;;;;;;2082165;28;20108;-70
2024/01/07 01:07:10;;;;;;;55.90;29.13;;;0.60;99.90;;;;;;2086273;28;20025;-70
2024/01/07 01:08:11;;;;;;;58.15;28.85;;;0.60;99.90;;;;;;2071729;28;20025;-71
2024/01/07 01:09:11;;;;;;;57.60;29.88;;;0.60;99.90;;;;;;2065082;28;20061;-71
2024/01/07 01:10:16;;;;;;;56.22;30.02;;;0.60;99.90;;;;;;2074465;28;20029;-71
2024/01/07 01:11:17;;;;;;;60.50;29.73;;;0.60;99.90;;;;;;2081076;28;20117;-71
2024/01/07 01:12:17;;;;;;;52.85;27.02;;;0.60;99.90;;;;;;2070656;28;20551;-70
2024/01/07 01:13:18;;;;;;;50.97;28.02;;;0.70;99.90;;;;;;2071930;28;20041;-71
2024/01/07 01:14:18;;;;;;;58.20;29.85;;;0.60;99.90;;;;;;2072125;28;20038;-70
2024/01/07 01:15:19;;;;;;;51.67;28.45;;;0.60;99.90;;;;;;2072218;28;20036;-71
2024/01/07 01:16:19;;;;;;;57.03;29.10;;;0.60;99.90;;;;;;2072557;28;20013;-72
2024/01/07 01:17:21;;;;;;;55.15;28.92;;;0.60;99.90;;;;;;2079856;28;20103;-73
2024/01/07 01:18:21;;;;;;;55.92;29.15;;;0.60;99.90;;;;;;2072398;28;20055;-71
2024/01/07 01:19:22;;;;;;;52.50;28.15;;;0.60;99.90;;;;;;2074540;28;20053;-72
2024/01/07 01:20:22;;;;;;;54.75;28.83;;;0.60;99.90;;;;;;2079777;28;20048;-71
2024/01/07 01:21:23;;;;;;;55.65;29.73;;;0.70;99.90;;;;;;2069460;28;20494;-71
2024/01/07 01:22:23;;;;;;;53.25;28.48;;;0.70;99.90;;;;;;2068730;28;20033;-71
2024/01/07 01:23:24;;;;;;;53.13;28.52;;;0.70;99.90;;;;;;2072805;28;20041;-72
2024/01/07 01:24:24;;;;;;;55.03;28.23;;;0.70;99.90;;;;;;2070611;28;20117;-71
2024/01/07 01:25:26;;;;;;;57.90;29.90;;;0.70;99.90;;;;;;2070869;28;20025;-74
2024/01/07 01:26:26;;;;;;;55.40;29.33;;;0.70;99.90;;;;;;2079919;28;20495;-73
2024/01/07 01:27:27;;;;;;;52.15;28.45;;;0.60;99.90;;;;;;2069496;28;20123;-72
2024/01/07 01:28:28;;;;;;;60.72;29.92;;;0.60;99.90;;;;;;2069443;28;20030;-72
2024/01/07 01:29:28;;;;;;;49.40;27.88;;;0.60;99.90;;;;;;2072013;28;20037;-73
2024/01/07 01:30:31;;;;;;;52.67;28.95;;;0.60;99.90;;;;;;2079732;28;20024;-73
2024/01/07 01:31:32;;;;;;;53.90;27.98;;;0.60;99.90;;;;;;2070643;28;20127;-72
2024/01/07 01:32:32;;;;;;;60.70;31.10;;;0.60;99.90;;;;;;2067515;28;20056;-74
2024/01/07 01:33:33;;;;;;;58.30;29.98;;;0.60;99.90;;;;;;2078015;28;20063;-73
2024/01/07 01:34:34;;;;;;;60.53;30.88;;;0.60;99.90;;;;;;2071971;28;20037;-73
2024/01/07 01:35:34;;;;;;;56.67;28.75;;;0.60;99.90;;;;;;2064880;28;20419;-73
2024/01/07 01:36:35;;;;;;;55.78;29.48;;;0.60;99.90;;;;;;2071550;28;20073;-73
2024/01/07 01:37:35;;;;;;;56.72;29.50;;;0.60;99.90;;;;;;2070514;28;20034;-73
2024/01/07 01:38:36;;;;;;;60.00;30.67;;;0.60;99.90;;;;;;2055100;28;20015;-74
2024/01/07 01:39:40;;;;;;;58.40;30.10;;;0.50;99.90;;;;;;2064309;28;20122;-75
2024/01/07 01:40:41;;;;;;;56.22;28.85;;;0.50;99.90;;;;;;2080011;28;20032;-74
2024/01/07 01:41:41;;;;;;;59.25;30.58;;;0.50;99.90;;;;;;2079444;28;20036;-74
2024/01/07 01:42:47;;;;;;;57.45;30.65;;;0.50;99.90;;;;;;2079084;28;20048;-73
2024/01/07 01:43:48;;;;;;;58.97;29.33;;;0.60;99.90;;;;;;2070580;28;20072;-75
2024/01/07 01:44:48;;;;;;;59.45;30.95;;;0.50;99.90;;;;;;2063177;28;20046;-75
2024/01/07 01:45:49;;;;;;;62.55;31.33;;;0.50;99.90;;;;;;2072208;28;20058;-73
2024/01/07 01:46:50;;;;;;;56.42;29.15;;;0.40;99.90;;;;;;2086013;28;20067;-73
2024/01/07 01:47:50;;;;;;;60.60;30.15;;;0.50;99.90;;;;;;2087366;28;20024;-73
2024/01/07 01:48:52;;;;;;;57.88;29.05;;;0.40;99.90;;;;;;2070612;28;20507;-76
2024/01/07 01:49:52;;;;;;;60.47;29.90;;;0.40;99.90;;;;;;2074863;28;20055;-77
2024/01/07 01:50:57;;;;;;;59.95;30.55;;;0.40;99.90;;;;;;2079357;28;20774;-76
2024/01/07 01:51:58;;;;;;;61.08;30.13;;;0.40;99.90;;;;;;2057622;28;20121;-77
2024/01/07 01:52:59;;;;;;;57.60;29.55;;;0.40;99.90;;;;;;2074180;28;20045;-74
2024/01/07 01:54:01;;;;;;;59.90;31.08;;;0.40;99.90;;;;;;2087480;28;20064;-75
2024/01/07 01:55:02;;;;;;;62.28;30.48;;;0.30;99.90;;;;;;2083332;28;20024;-77
2024/01/07 01:56:03;;;;;;;61.63;30.38;;;0.40;99.90;;;;;;2070793;28;20025;-76
2024/01/07 01:57:05;;;;;;;63.58;31.67;;;0.30;99.90;;;;;;2056295;28;20102;-76
2024/01/07 01:58:08;;;;;;;63.05;31.08;;;0.20;99.90;;;;;;2057539;28;20041;-76
2024/01/07 01:59:09;;;;;;;60.42;31.17;;;0.20;99.90;;;;;;2059636;28;20098;-75
2024/01/07 02:00:10;;;;;;;61.53;30.58;;;0.20;99.90;;;;;;2068473;28;20030;-74
2024/01/07 02:01:10;;;;;;;58.67;30.85;;;0.20;99.90;;;;;;2070328;28;20034;-74
2024/01/07 02:02:11;;;;;;;56.20;30.17;;;0.30;99.90;;;;;;2070683;28;20108;-75
2024/01/07 02:03:12;;;;;;;56.70;29.48;;;0.40;99.90;;;;;;2069348;28;20030;-75
2024/01/07 02:04:15;;;;;;;56.15;30.17;;;0.40;99.90;;;;;;2070176;28;20041;-74
2024/01/07 02:05:16;;;;;;;56.15;30.20;;;0.30;99.90;;;;;;2075378;28;20025;-74
2024/01/07 02:06:17;;;;;;;59.78;30.70;;;0.30;99.90;;;;;;2061497;28;20141;-74
2024/01/07 02:07:17;;;;;;;59.97;31.10;;;0.20;99.90;;;;;;2060225;28;20057;-74
2024/01/07 02:08:19;;;;;;;57.83;30.83;;;0.20;99.90;;;;;;2069496;28;20069;-74
2024/01/07 02:09:19;;;;;;;58.85;30.73;;;0.20;99.90;;;;;;2062536;28;20125;-74
2024/01/07 02:10:20;;;;;;;59.90;30.58;;;0.20;99.90;;;;;;2060150;28;20481;-74
2024/01/07 02:11:22;;;;;;;56.30;29.13;;;0.30;99.90;;;;;;2069174;28;20065;-75
2024/01/07 02:12:22;;;;;;;56.03;29.23;;;0.30;99.90;;;;;;2070123;28;20025;-74
2024/01/07 02:13:23;;;;;;;52.80;28.42;;;0.30;99.90;;;;;;2065854;28;20512;-74
2024/01/07 02:14:24;;;;;;;54.08;28.48;;;0.30;99.90;;;;;;2069463;28;20506;-74
2024/01/07 02:15:26;;;;;;;54.63;28.42;;;0.30;99.90;;;;;;2055082;28;20027;-75
2024/01/07 02:16:27;;;;;;;52.13;27.23;;;0.30;99.90;;;;;;2059145;28;20030;-75
2024/01/07 02:17:27;;;;;;;54.65;29.58;;;0.30;99.90;;;;;;2069386;28;20511;-75
2024/01/07 02:18:28;;;;;;;54.45;28.15;;;0.20;99.90;;;;;;2067628;28;20120;-75
2024/01/07 02:19:29;;;;;;;52.33;27.83;;;0.20;99.90;;;;;;2073300;28;20037;-74
2024/01/07 02:20:29;;;;;;;52.28;28.30;;;0.20;99.90;;;;;;2078859;28;20473;-74
2024/01/07 02:21:30;;;;;;;51.10;28.50;;;0.20;99.90;;;;;;2077332;28;20118;-74
2024/01/07 02:22:30;;;;;;;51.90;28.10;;;0.30;99.90;;;;;;2070137;28;20029;-74
2024/01/07 02:23:31;;;;;;;56.72;28.50;;;0.30;99.90;;;;;;2069203;28;20404;-73
2024/01/07 02:24:32;;;;;;;52.17;28.23;;;0.30;99.90;;;;;;2070652;28;20032;-74
2024/01/07 02:25:36;;;;;;;52.05;27.95;;;0.30;99.90;;;;;;2068231;28;20033;-74
2024/01/07 02:26:37;;;;;;;55.72;29.02;;;0.30;99.90;;;;;;2069383;28;20042;-73
2024/01/07 02:27:37;;;;;;;54.40;28.83;;;0.20;99.90;;;;;;2065515;28;20044;-72
2024/01/07 02:28:38;;;;;;;54.30;28.80;;;0.20;99.90;;;;;;2070327;28;20048;-73
2024/01/07 02:29:38;;;;;;;53.15;28.38;;;0.20;99.90;;;;;;2065479;28;20235;-72
2024/01/07 02:30:39;;;;;;;55.95;29.70;;;0.30;99.90;;;;;;2070728;28;20112;-73
2024/01/07 02:31:39;;;;;;;55.40;28.42;;;0.30;99.90;;;;;;2082748;28;20557;-71
2024/01/07 02:32:40;;;;;;;47.05;26.75;;;0.30;99.90;;;;;;2078050;28;20017;-72
2024/01/07 02:33:41;;;;;;;51.45;27.50;;;0.30;99.90;;;;;;2080299;28;20021;-73
2024/01/07 02:34:41;;;;;;;51.05;28.13;;;0.30;99.90;;;;;;2086519;28;20033;-71
2024/01/07 02:35:42;;;;;;;55.35;28.80;;;0.30;99.90;;;;;;2080693;28;20025;-71
2024/01/07 02:36:43;;;;;;;53.08;28.60;;;0.30;99.90;;;;;;2077074;28;20035;-72
2024/01/07 02:37:43;;;;;;;51.03;27.45;;;0.30;99.90;;;;;;2081906;28;20029;-71
2024/01/07 02:38:44;;;;;;;51.30;27.92;;;0.40;99.90;;;;;;2081585;28;20032;-72
2024/01/07 02:39:45;;;;;;;48.88;27.33;;;0.40;99.90;;;;;;2073982;28;20034;-72
2024/01/07 02:40:45;;;;;;;48.97;27.50;;;0.40;99.90;;;;;;2074866;28;20025;-72
2024/01/07 02:41:46;;;;;;;44.17;26.02;;;0.40;99.90;;;;;;2073077;28;20029;-73
2024/01/07 02:42:47;;;;;;;49.65;26.65;;;0.30;99.90;;;;;;2073856;28;20052;-72
2024/01/07 02:43:47;;;;;;;52.13;27.65;;;0.30;99.90;;;;;;2068866;28;23445;-71
2024/01/07 02:44:48;;;;;;;46.22;25.52;;;0.20;99.90;;;;;;2059742;28;20034;-72
2024/01/07 02:45:49;;;;;;;49.30;26.05;;;0.20;99.90;;;;;;2062077;28;20571;-72
2024/01/07 02:46:49;;;;;;;47.67;26.08;;;0.30;99.90;;;;;;2067720;28;20116;-72
2024/01/07 02:47:50;;;;;;;48.70;25.88;;;0.30;99.90;;;;;;2076892;28;20033;-72
2024/01/07 02:48:51;;;;;;;44.25;25.15;;;0.30;99.90;;;;;;2080682;28;20025;-72
2024/01/07 02:49:51;;;;;;;44.67;24.90;;;0.30;99.90;;;;;;2072611;28;20482;-72
2024/01/07 02:50:52;;;;;;;47.05;24.65;;;0.30;99.90;;;;;;2065472;28;20025;-71
2024/01/07 02:51:52;;;;;;;45.83;25.08;;;0.30;99.90;;;;;;2072937;28;20029;-72
2024/01/07 02:52:53;;;;;;;48.30;24.58;;;0.30;99.90;;;;;;2073341;28;20549;-72
2024/01/07 02:53:53;;;;;;;45.00;24.17;;;0.30;99.90;;;;;;2072734;28;20034;-73
2024/01/07 02:54:54;;;;;;;45.67;24.92;;;0.30;99.90;;;;;;2071690;28;20045;-72
2024/01/07 02:55:54;;;;;;;48.00;24.98;;;0.30;99.90;;;;;;2064003;28;20492;-73
2024/01/07 02:56:55;;;;;;;45.10;24.48;;;0.30;99.90;;;;;;2070543;28;20065;-74
2024/01/07 02:57:55;;;;;;;45.72;25.15;;;0.20;99.90;;;;;;2081281;28;20059;-74
2024/01/07 02:58:56;;;;;;;47.30;25.30;;;0.20;99.90;;;;;;2081971;28;20051;-75
2024/01/07 02:59:56;;;;;;;45.90;25.15;;;0.20;99.90;;;;;;2071620;28;20018;-73
2024/01/07 03:00:57;;;;;;;46.53;25.52;;;0.20;99.90;;;;;;2071683;28;20022;-73
2024/01/07 03:01:57;;;;;;;45.15;25.17;;;0.10;99.90;;;;;;2077160;28;20029;-74
2024/01/07 03:02:58;;;;;;;47.22;25.05;;;0.20;99.90;;;;;;2082546;28;20029;-72
2024/01/07 03:03:58;;;;;;;43.83;24.77;;;0.20;99.90;;;;;;2072925;28;20053;-73
2024/01/07 03:04:59;;;;;;;44.00;24.00;;;0.20;99.90;;;;;;2068824;28;20029;-73
2024/01/07 03:05:59;;;;;;;46.30;24.27;;;0.30;99.90;;;;;;2073465;28;20039;-73
2024/01/07 03:07:00;;;;;;;43.15;24.35;;;0.20;99.90;;;;;;2073668;28;20112;-74
2024/01/07 03:08:01;;;;;;;46.53;24.73;;;0.20;99.90;;;;;;2082313;28;20104;-73
2024/01/07 03:09:01;;;;;;;46.03;23.70;;;0.20;99.90;;;;;;2072508;28;20034;-76
2024/01/07 03:10:02;;;;;;;42.28;22.65;;;0.20;99.90;;;;;;2066626;28;20361;-72
2024/01/07 03:11:06;;;;;;;42.75;23.48;;;0.20;99.90;;;;;;2070791;28;20086;-72
2024/01/07 03:12:06;;;;;;;44.55;23.83;;;0.20;99.90;;;;;;2079425;28;20400;-71
2024/01/07 03:13:07;;;;;;;45.20;24.20;;;0.10;99.90;;;;;;2079630;28;20032;-72
2024/01/07 03:14:08;;;;;;;44.80;24.52;;;0.10;99.90;;;;;;2081809;28;20040;-72
2024/01/07 03:15:08;;;;;;;42.92;23.50;;;0.10;99.90;;;;;;2082658;28;20394;-72
2024/01/07 03:16:19;;;;;;;42.80;24.10;;;0.10;99.90;;;;;;2079255;28;20033;-72
2024/01/07 03:17:21;;;;;;;45.45;23.15;;;0.10;99.90;;;;;;2078248;28;20485;-72
2024/01/07 03:18:22;;;;;;;43.67;24.00;;;0.20;99.90;;;;;;2079226;28;20057;-72
2024/01/07 03:19:22;;;;;;;41.75;23.10;;;0.20;99.90;;;;;;2075807;28;20033;-72
2024/01/07 03:20:23;;;;;;;44.97;23.85;;;0.20;99.90;;;;;;2079939;28;20021;-72
2024/01/07 03:21:24;;;;;;;44.45;23.48;;;0.20;99.90;;;;;;2069968;28;20113;-73
2024/01/07 03:22:24;;;;;;;40.00;22.67;;;0.10;99.90;;;;;;2070376;28;20076;-72
2024/01/07 03:23:25;;;;;;;44.50;23.58;;;0.10;99.90;;;;;;2078680;28;20018;-72
2024/01/07 03:24:25;;;;;;;40.97;22.92;;;0.10;99.90;;;;;;2072001;28;20026;-73
2024/01/07 03:25:26;;;;;;;41.60;22.58;;;0.10;99.90;;;;;;2067575;28;20045;-73
2024/01/07 03:26:32;;;;;;;46.63;23.88;;;0.00;99.90;;;;;;2080087;28;20108;-72
2024/01/07 03:27:33;;;;;;;42.78;23.02;;;0.00;99.90;;;;;;2082958;28;20037;-72
2024/01/07 03:28:33;;;;;;;44.38;24.73;;;0.00;99.90;;;;;;2069687;28;20057;-72
2024/01/07 03:29:36;;;;;;;42.97;23.85;;;0.00;99.90;;;;;;2071460;28;20030;-73
2024/01/07 03:30:36;;;;;;;42.95;23.67;;;0.00;99.90;;;;;;2073298;28;20108;-73
2024/01/07 03:31:37;;;;;;;45.60;23.73;;;0.00;99.90;;;;;;2076726;28;20037;-72
2024/01/07 03:32:38;;;;;;;46.60;23.52;;;-0.10;99.90;;;;;;2078784;28;20022;-72
2024/01/07 03:33:39;;;;;;;47.10;24.17;;;-0.10;99.90;;;;;;2081816;28;20115;-72
2024/01/07 03:34:40;;;;;;;40.72;22.83;;;0.00;99.90;;;;;;2072152;28;20029;-71
2024/01/07 03:35:40;;;;;;;43.03;23.70;;;0.00;99.90;;;;;;2072877;28;20025;-71
2024/01/07 03:36:41;;;;;;;44.28;22.70;;;0.00;99.90;;;;;;2077394;28;20030;-71
2024/01/07 03:37:41;;;;;;;50.45;24.95;;;0.00;99.90;;;;;;2072596;28;20026;-71
2024/01/07 03:38:43;;;;;;;43.67;23.20;;;0.00;99.90;;;;;;2055336;28;20037;-71
2024/01/07 03:39:44;;;;;;;46.05;24.42;;;0.00;99.90;;;;;;2072984;28;20069;-72
2024/01/07 03:40:45;;;;;;;41.80;22.40;;;0.00;99.90;;;;;;2077822;28;20107;-71
2024/01/07 03:41:46;;;;;;;43.60;23.77;;;0.00;99.90;;;;;;2071884;28;20512;-72
2024/01/07 03:42:46;;;;;;;47.45;23.50;;;0.10;99.90;;;;;;2063794;28;20120;-72
2024/01/07 03:43:48;;;;;;;41.00;22.83;;;0.10;99.90;;;;;;2059760;28;20052;-72
2024/01/07 03:44:48;;;;;;;46.75;24.13;;;0.10;99.90;;;;;;2075278;28;20028;-72
2024/01/07 03:45:49;;;;;;;42.15;22.50;;;0.00;99.90;;;;;;2077476;28;20115;-72
2024/01/07 03:46:50;;;;;;;45.28;23.80;;;0.00;99.90;;;;;;2070470;28;20401;-73
2024/01/07 03:47:51;;;;;;;47.10;24.20;;;-0.10;99.90;;;;;;2065929;28;20289;-72
2024/01/07 03:48:52;;;;;;;41.85;23.52;;;-0.10;99.90;;;;;;2072739;28;20100;-72
2024/01/07 03:49:52;;;;;;;50.15;24.90;;;0.00;99.90;;;;;;2071974;28;20512;-72
2024/01/07 03:50:53;;;;;;;42.33;23.10;;;0.00;99.90;;;;;;2068387;28;20029;-73
2024/01/07 03:51:53;;;;;;;44.70;22.85;;;0.00;99.90;;;;;;2084444;28;20490;-71
2024/01/07 03:52:54;;;;;;;49.20;24.67;;;0.00;99.90;;;;;;2084851;28;20029;-72
2024/01/07 03:53:54;;;;;;;45.58;24.52;;;0.00;99.90;;;;;;2071206;28;20028;-71
2024/01/07 03:54:55;;;;;;;44.97;23.52;;;0.00;99.90;;;;;;2065229;28;20110;-71
2024/01/07 03:55:56;;;;;;;49.72;23.88;;;0.00;99.90;;;;;;2065308;28;20037;-72
2024/01/07 03:56:56;;;;;;;43.67;24.00;;;0.10;99.90;;;;;;2064069;28;20056;-72
2024/01/07 03:57:57;;;;;;;42.30;23.50;;;0.00;99.90;;;;;;2071126;28;20022;-72
2024/01/07 03:58:57;;;;;;;44.60;23.80;;;0.10;99.90;;;;;;2078855;28;20485;-71
2024/01/07 03:59:58;;;;;;;48.13;24.50;;;0.10;99.90;;;;;;2083556;28;20037;-71
2024/01/07 04:00:58;;;;;;;43.78;23.52;;;0.10;99.90;;;;;;2079694;28;20029;-71
2024/01/07 04:01:59;;;;;;;48.15;25.00;;;0.00;99.90;;;;;;2070509;28;20076;-72
2024/01/07 04:03:00;;;;;;;48.67;25.02;;;-0.10;99.90;;;;;;2069558;28;20037;-72
2024/01/07 04:04:01;;;;;;;43.60;24.10;;;0.00;99.90;;;;;;2082508;28;20028;-72
2024/01/07 04:05:01;;;;;;;45.78;23.90;;;0.00;99.90;;;;;;2071825;28;20124;-72
2024/01/07 04:06:07;;;;;;;45.92;24.42;;;0.00;99.90;;;;;;2071999;28;20037;-72
2024/01/07 04:07:08;;;;;;;47.78;24.90;;;0.10;99.90;;;;;;2070479;28;20046;-71
2024/01/07 04:08:12;;;;;;;46.38;24.13;;;0.00;99.90;;;;;;2081089;28;20037;-72
2024/01/07 04:09:12;;;;;;;45.67;23.75;;;0.10;99.90;;;;;;2075581;28;20523;-74
2024/01/07 04:10:13;;;;;;;43.60;23.75;;;0.10;99.90;;;;;;2064232;28;20105;-73
2024/01/07 04:11:13;;;;;;;42.63;22.75;;;0.10;99.90;;;;;;2065461;28;20028;-72
2024/01/07 04:12:14;;;;;;;44.42;23.70;;;0.00;99.90;;;;;;2069882;28;20050;-72
2024/01/07 04:13:14;;;;;;;43.97;23.13;;;0.00;99.90;;;;;;2074374;28;20037;-72
2024/01/07 04:14:15;;;;;;;42.08;22.75;;;0.00;99.90;;;;;;2075594;28;20017;-72
2024/01/07 04:15:16;;;;;;;43.78;23.55;;;0.00;99.90;;;;;;2083762;28;20024;-72
2024/01/07 04:16:20;;;;;;;42.08;23.00;;;0.10;99.90;;;;;;2075266;28;20036;-72
2024/01/07 04:17:20;;;;;;;40.63;22.38;;;0.10;99.90;;;;;;2075359;28;20116;-72
2024/01/07 04:18:21;;;;;;;40.42;22.75;;;0.10;99.90;;;;;;2075516;28;20036;-73
2024/01/07 04:19:21;;;;;;;41.40;21.70;;;0.10;99.90;;;;;;2081191;28;20037;-72
2024/01/07 04:20:22;;;;;;;45.63;22.45;;;0.00;99.90;;;;;;2079420;28;20490;-72
2024/01/07 04:21:23;;;;;;;42.95;22.42;;;0.00;99.90;;;;;;2083113;28;20033;-72
2024/01/07 04:22:23;;;;;;;43.40;22.40;;;0.00;99.90;;;;;;2078828;28;20052;-72
2024/01/07 04:23:24;;;;;;;43.95;23.10;;;0.00;99.90;;;;;;2077847;28;20055;-72
2024/01/07 04:24:24;;;;;;;39.17;22.33;;;0.00;99.90;;;;;;2077165;28;20029;-72
2024/01/07 04:25:25;;;;;;;45.28;23.25;;;0.00;99.90;;;;;;2075135;28;20025;-72
2024/01/07 04:26:25;;;;;;;40.45;21.70;;;0.00;99.90;;;;;;2076352;28;20057;-72
2024/01/07 04:27:26;;;;;;;41.35;22.92;;;-0.10;99.90;;;;;;2085372;28;20028;-72
2024/01/07 04:28:27;;;;;;;37.97;21.88;;;-0.10;99.90;;;;;;2083674;28;20047;-73
2024/01/07 04:29:28;;;;;;;38.03;21.80;;;-0.10;99.90;;;;;;2077095;28;20068;-73
2024/01/07 04:30:28;;;;;;;48.60;23.65;;;-0.20;99.90;;;;;;2085212;28;20028;-72
2024/01/07 04:31:29;;;;;;;42.33;22.40;;;-0.20;99.90;;;;;;2084914;28;20037;-72
2024/01/07 04:32:29;;;;;;;44.20;23.10;;;-0.20;99.90;;;;;;2084638;28;20067;-73
2024/01/07 04:33:30;;;;;;;41.28;21.45;;;-0.20;99.90;;;;;;2072550;28;20194;-72
2024/01/07 04:34:31;;;;;;;38.75;21.10;;;-0.10;99.90;;;;;;2076425;28;20508;-72
2024/01/07 04:35:31;;;;;;;38.95;21.50;;;-0.10;99.90;;;;;;2085116;28;20094;-73
2024/01/07 04:36:32;;;;;;;39.60;21.48;;;-0.10;99.90;;;;;;2076309;28;20026;-72
2024/01/07 04:37:33;;;;;;;40.30;21.15;;;-0.10;99.90;;;;;;2076395;28;20029;-71
2024/01/07 04:38:34;;;;;;;41.67;21.73;;;-0.10;99.90;;;;;;2083967;28;20020;-71
2024/01/07 04:39:35;;;;;;;35.72;20.48;;;-0.10;99.90;;;;;;2076846;28;20537;-72
2024/01/07 04:40:35;;;;;;;40.38;21.70;;;0.00;99.90;;;;;;2084583;28;20086;-71
2024/01/07 04:41:36;;;;;;;39.28;21.80;;;0.00;99.90;;;;;;2081279;28;20033;-72
2024/01/07 04:42:36;;;;;;;40.90;21.02;;;0.00;99.90;;;;;;2076173;28;20038;-71
2024/01/07 04:43:37;;;;;;;36.83;21.33;;;0.00;99.90;;;;;;2084129;28;20033;-72
2024/01/07 04:44:37;;;;;;;35.97;21.15;;;-0.10;99.90;;;;;;2069761;28;20026;-72
2024/01/07 04:45:38;;;;;;;40.15;21.67;;;-0.10;99.90;;;;;;2060708;28;20048;-72
2024/01/07 04:46:39;;;;;;;38.85;21.55;;;0.00;99.90;;;;;;2077104;28;20512;-72
2024/01/07 04:47:40;;;;;;;35.88;20.88;;;-0.10;99.90;;;;;;2073757;28;20033;-72
2024/01/07 04:48:40;;;;;;;38.75;20.88;;;-0.10;99.90;;;;;;2076207;28;20045;-73
2024/01/07 04:49:41;;;;;;;37.85;21.10;;;-0.10;99.90;;;;;;2081715;28;20025;-73
2024/01/07 04:50:44;;;;;;;35.33;20.85;;;-0.10;99.90;;;;;;2078880;28;20032;-74
2024/01/07 04:51:44;;;;;;;40.80;21.70;;;-0.10;99.90;;;;;;2076854;28;20066;-74
2024/01/07 04:52:46;;;;;;;37.10;21.08;;;-0.10;99.90;;;;;;2073095;28;20056;-73
2024/01/07 04:53:48;;;;;;;39.08;21.08;;;-0.20;99.90;;;;;;2063839;28;20053;-73
2024/01/07 04:54:55;;;;;;;38.58;21.52;;;-0.20;99.90;;;;;;2074310;28;20050;-74
2024/01/07 04:55:56;;;;;;;37.28;21.55;;;-0.10;99.90;;;;;;2083343;28;20120;-73
2024/01/07 04:56:56;;;;;;;38.35;20.75;;;-0.20;99.90;;;;;;2085092;28;20048;-71
2024/01/07 04:57:57;;;;;;;39.92;21.20;;;-0.20;99.90;;;;;;2073190;28;20021;-72
2024/01/07 04:58:57;;;;;;;42.53;21.33;;;-0.20;99.90;;;;;;2068037;28;20571;-72
2024/01/07 04:59:58;;;;;;;36.25;20.65;;;-0.20;99.90;;;;;;2072035;28;20033;-71
2024/01/07 05:00:58;;;;;;;37.17;21.10;;;-0.20;99.90;;;;;;2076420;28;20025;-71
2024/01/07 05:01:59;;;;;;;34.50;20.73;;;-0.20;99.90;;;;;;2085121;28;20118;-73
2024/01/07 05:03:00;;;;;;;36.58;20.50;;;-0.20;99.90;;;;;;2076736;28;20428;-72
2024/01/07 05:04:00;;;;;;;39.42;21.92;;;-0.20;99.90;;;;;;2084993;28;20110;-73
2024/01/07 05:05:01;;;;;;;35.67;20.38;;;-0.20;99.90;;;;;;2077517;28;20025;-73
2024/01/07 05:06:02;;;;;;;37.63;20.10;;;-0.20;99.90;;;;;;2072028;28;20376;-71
2024/01/07 05:07:03;;;;;;;41.50;21.65;;;-0.20;99.90;;;;;;2072154;28;20038;-71
2024/01/07 05:08:04;;;;;;;37.78;20.30;;;-0.20;99.90;;;;;;2067783;28;20625;-72
2024/01/07 05:09:04;;;;;;;37.75;20.60;;;-0.20;99.90;;;;;;2063853;28;20038;-73
2024/01/07 05:10:05;;;;;;;35.20;20.02;;;-0.20;99.90;;;;;;2071785;28;20014;-72
2024/01/07 05:11:06;;;;;;;34.92;19.50;;;-0.20;99.90;;;;;;2076939;28;20088;-72
2024/01/07 05:12:06;;;;;;;34.92;20.08;;;-0.20;99.90;;;;;;2083625;28;20074;-72